createdAt,value
2017-08-08T00:01:07.775Z,0
2017-08-08T00:02:16.981Z,0
2017-08-08T00:03:25.876Z,0
2017-08-08T00:04:35.405Z,0
2017-08-08T00:05:44.940Z,0
2017-08-08T00:06:54.790Z,0
2017-08-08T00:08:04.321Z,0
2017-08-08T00:09:13.537Z,0
2017-08-08T00:10:23.068Z,0
2017-08-08T00:11:32.275Z,0
2017-08-08T00:12:42.128Z,0
2017-08-08T00:13:51.709Z,0
2017-08-08T00:15:00.916Z,0
2017-08-08T00:16:10.123Z,0
2017-08-08T00:17:19.651Z,0
2017-08-08T00:18:29.507Z,0
2017-08-08T00:19:39.140Z,0
2017-08-08T00:20:48.346Z,0
2017-08-08T00:21:57.879Z,0
2017-08-08T00:23:07.087Z,0
2017-08-08T00:24:16.307Z,0
2017-08-08T00:25:26.312Z,0
2017-08-08T00:26:35.847Z,0
2017-08-08T00:27:45.053Z,0
2017-08-08T00:28:54.581Z,0
2017-08-08T00:30:04.435Z,0
2017-08-08T00:31:13.693Z,0
2017-08-08T00:32:23.223Z,0
2017-08-08T00:33:32.770Z,0
2017-08-08T00:34:41.992Z,0
2017-08-08T00:35:51.529Z,0
2017-08-08T00:37:01.158Z,0
2017-08-08T00:38:10.363Z,0
2017-08-08T00:39:19.891Z,0
2017-08-08T00:40:29.424Z,0
2017-08-08T00:41:38.955Z,0
2017-08-08T00:42:48.591Z,0
2017-08-08T00:43:58.449Z,0
2017-08-08T00:45:07.655Z,0
2017-08-08T00:46:16.859Z,0
2017-08-08T00:47:26.390Z,0
2017-08-08T00:48:35.975Z,0
2017-08-08T00:49:45.503Z,0
2017-08-08T00:50:55.037Z,0
2017-08-08T00:52:05.219Z,0
2017-08-08T00:53:14.446Z,0
2017-08-08T00:54:24.322Z,0
2017-08-08T00:55:33.211Z,0
2017-08-08T00:56:42.745Z,0
2017-08-08T00:57:52.606Z,0
2017-08-08T00:59:01.816Z,0
2017-08-08T01:00:12.155Z,0
2017-08-08T01:01:22.010Z,0
2017-08-08T01:02:31.215Z,0
2017-08-08T01:03:40.098Z,0
2017-08-08T01:04:49.304Z,0
2017-08-08T01:05:58.867Z,0
2017-08-08T01:07:08.727Z,0
2017-08-08T01:08:17.935Z,0
2017-08-08T01:09:27.157Z,0
2017-08-08T01:10:36.691Z,0
2017-08-08T01:11:46.001Z,0
2017-08-08T01:12:55.226Z,0
2017-08-08T01:14:04.763Z,0
2017-08-08T01:15:13.654Z,0
2017-08-08T01:16:23.188Z,0
2017-08-08T01:17:32.402Z,0
2017-08-08T01:18:41.296Z,0
2017-08-08T01:19:50.874Z,0
2017-08-08T01:21:00.401Z,0
2017-08-08T01:22:09.934Z,0
2017-08-08T01:23:19.002Z,0
2017-08-08T01:24:28.856Z,0
2017-08-08T01:25:38.064Z,0
2017-08-08T01:26:47.603Z,0
2017-08-08T01:27:57.138Z,0
2017-08-08T01:29:07.244Z,0
2017-08-08T01:30:16.777Z,0
2017-08-08T01:31:26.636Z,0
2017-08-08T01:32:36.494Z,0
2017-08-08T01:33:46.024Z,0
2017-08-08T01:34:55.063Z,0
2017-08-08T01:36:04.594Z,0
2017-08-08T01:37:13.802Z,0
2017-08-08T01:38:23.009Z,0
2017-08-08T01:39:32.861Z,0
2017-08-08T01:40:43.066Z,0
2017-08-08T01:41:52.280Z,0
2017-08-08T01:43:02.457Z,0
2017-08-08T01:44:11.987Z,0
2017-08-08T01:45:21.193Z,0
2017-08-08T01:46:30.501Z,0
2017-08-08T01:47:39.706Z,0
2017-08-08T01:48:48.918Z,0
2017-08-08T01:49:58.127Z,0
2017-08-08T01:51:07.010Z,0
2017-08-08T01:52:16.371Z,0
2017-08-08T01:53:25.576Z,0
2017-08-08T01:54:35.141Z,0
2017-08-08T01:55:44.350Z,0
2017-08-08T01:56:53.881Z,0
2017-08-08T01:58:02.913Z,0
2017-08-08T01:59:12.442Z,0
2017-08-08T02:00:22.297Z,0
2017-08-08T02:01:31.507Z,0
2017-08-08T02:02:40.711Z,0
2017-08-08T02:03:50.341Z,0
2017-08-08T02:04:59.551Z,0
2017-08-08T02:06:09.082Z,0
2017-08-08T02:07:18.937Z,0
2017-08-08T02:08:28.145Z,0
2017-08-08T02:09:37.505Z,0
2017-08-08T02:10:47.040Z,0
2017-08-08T02:11:55.939Z,0
2017-08-08T02:13:05.472Z,0
2017-08-08T02:14:15.001Z,0
2017-08-08T02:15:24.779Z,0
2017-08-08T02:16:33.660Z,0
2017-08-08T02:17:42.866Z,0
2017-08-08T02:18:52.392Z,0
2017-08-08T02:20:01.921Z,0
2017-08-08T02:21:11.830Z,0
2017-08-08T02:22:21.042Z,0
2017-08-08T02:23:30.246Z,0
2017-08-08T02:24:39.448Z,0
2017-08-08T02:25:48.327Z,0
2017-08-08T02:26:57.511Z,0
2017-08-08T02:28:07.362Z,0
2017-08-08T02:29:16.569Z,0
2017-08-08T02:30:26.098Z,0
2017-08-08T02:31:35.634Z,0
2017-08-08T02:32:44.578Z,0
2017-08-08T02:33:53.462Z,0
2017-08-08T02:35:02.672Z,0
2017-08-08T02:36:12.543Z,0
2017-08-08T02:37:22.073Z,0
2017-08-08T02:38:31.805Z,0
2017-08-08T02:39:41.015Z,0
2017-08-08T02:40:50.862Z,0
2017-08-08T02:42:00.402Z,0
2017-08-08T02:43:09.609Z,0
2017-08-08T02:44:18.968Z,0
2017-08-08T02:45:28.235Z,0
2017-08-08T02:46:38.107Z,0
2017-08-08T02:47:47.967Z,0
2017-08-08T02:48:58.150Z,0
2017-08-08T02:50:07.515Z,0
2017-08-08T02:51:17.049Z,0
2017-08-08T02:52:26.577Z,0
2017-08-08T02:53:35.468Z,0
2017-08-08T02:54:44.681Z,0
2017-08-08T02:55:54.514Z,0
2017-08-08T02:57:04.042Z,0
2017-08-08T02:58:13.575Z,0
2017-08-08T02:59:23.100Z,0
2017-08-08T03:00:31.993Z,0
2017-08-08T03:01:41.618Z,0
2017-08-08T03:02:51.147Z,0
2017-08-08T03:04:00.674Z,0
2017-08-08T03:05:10.850Z,0
2017-08-08T03:06:20.699Z,0
2017-08-08T03:07:30.005Z,0
2017-08-08T03:08:39.534Z,0
2017-08-08T03:09:48.736Z,0
2017-08-08T03:10:57.624Z,0
2017-08-08T03:12:06.830Z,0
2017-08-08T03:13:16.566Z,0
2017-08-08T03:14:26.094Z,0
2017-08-08T03:15:35.312Z,0
2017-08-08T03:16:44.518Z,0
2017-08-08T03:17:54.050Z,0
2017-08-08T03:19:03.408Z,0
2017-08-08T03:20:12.622Z,0
2017-08-08T03:21:21.829Z,0
2017-08-08T03:22:30.727Z,0
2017-08-08T03:23:40.281Z,0
2017-08-08T03:24:49.267Z,0
2017-08-08T03:25:58.471Z,0
2017-08-08T03:27:08.000Z,0
2017-08-08T03:28:17.239Z,0
2017-08-08T03:29:26.119Z,0
2017-08-08T03:30:36.180Z,0
2017-08-08T03:31:45.393Z,0
2017-08-08T03:32:55.574Z,0
2017-08-08T03:34:05.105Z,0
2017-08-08T03:35:14.316Z,0
2017-08-08T03:36:23.902Z,0
2017-08-08T03:37:33.427Z,0
2017-08-08T03:38:42.634Z,0
2017-08-08T03:39:51.515Z,0
2017-08-08T03:41:01.044Z,0
2017-08-08T03:42:10.972Z,0
2017-08-08T03:43:20.190Z,0
2017-08-08T03:44:30.045Z,0
2017-08-08T03:45:39.253Z,0
2017-08-08T03:46:48.789Z,0
2017-08-08T03:47:57.733Z,0
2017-08-08T03:49:07.592Z,5
2017-08-08T03:50:17.127Z,5
2017-08-08T03:51:26.337Z,5
2017-08-08T03:52:35.871Z,5
2017-08-08T03:53:45.561Z,5
2017-08-08T03:54:55.411Z,5
2017-08-08T03:56:04.296Z,5
2017-08-08T03:57:14.154Z,5
2017-08-08T03:58:23.708Z,5
2017-08-08T03:59:33.287Z,10
2017-08-08T04:00:42.817Z,10
2017-08-08T04:01:52.025Z,10
2017-08-08T04:03:01.563Z,10
2017-08-08T04:04:11.098Z,10
2017-08-08T04:05:20.926Z,15
2017-08-08T04:06:29.810Z,15
2017-08-08T04:07:39.339Z,20
2017-08-08T04:08:48.543Z,25
2017-08-08T04:09:57.428Z,30
2017-08-08T04:11:07.762Z,30
2017-08-08T04:12:17.614Z,35
2017-08-08T04:13:26.825Z,35
2017-08-08T04:14:36.030Z,35
2017-08-08T04:15:45.881Z,30
2017-08-08T04:16:55.236Z,30
2017-08-08T04:18:04.130Z,30
2017-08-08T04:19:13.667Z,30
2017-08-08T04:20:23.528Z,30
2017-08-08T04:21:32.738Z,30
2017-08-08T04:22:41.675Z,35
2017-08-08T04:23:51.223Z,35
2017-08-08T04:25:00.752Z,35
2017-08-08T04:26:09.954Z,40
2017-08-08T04:27:18.839Z,40
2017-08-08T04:28:28.523Z,45
2017-08-08T04:29:38.060Z,45
2017-08-08T04:30:47.594Z,45
2017-08-08T04:31:57.126Z,50
2017-08-08T04:33:06.327Z,50
2017-08-08T04:34:15.888Z,50
2017-08-08T04:35:25.096Z,50
2017-08-08T04:36:34.632Z,50
2017-08-08T04:37:44.161Z,55
2017-08-08T04:38:53.369Z,55
2017-08-08T04:40:03.065Z,55
2017-08-08T04:41:12.275Z,55
2017-08-08T04:42:22.141Z,55
2017-08-08T04:43:31.346Z,55
2017-08-08T04:44:40.562Z,55
2017-08-08T04:45:50.093Z,60
2017-08-08T04:46:59.298Z,60
2017-08-08T04:48:08.510Z,65
2017-08-08T04:49:18.362Z,70
2017-08-08T04:50:27.893Z,75
2017-08-08T04:51:37.575Z,75
2017-08-08T04:52:47.117Z,80
2017-08-08T04:53:56.643Z,80
2017-08-08T04:55:06.827Z,75
2017-08-08T04:56:16.361Z,80
2017-08-08T04:57:26.042Z,75
2017-08-08T04:58:34.923Z,75
2017-08-08T04:59:43.808Z,75
2017-08-08T05:00:53.991Z,75
2017-08-08T05:02:03.576Z,75
2017-08-08T05:03:12.791Z,75
2017-08-08T05:04:22.645Z,80
2017-08-08T05:05:31.906Z,80
2017-08-08T05:06:41.446Z,80
2017-08-08T05:07:50.963Z,85
2017-08-08T05:08:59.846Z,85
2017-08-08T05:10:09.054Z,85
2017-08-08T05:11:18.329Z,90
2017-08-08T05:12:27.916Z,90
2017-08-08T05:13:37.819Z,90
2017-08-08T05:14:47.689Z,95
2017-08-08T05:15:56.912Z,100
2017-08-08T05:17:06.452Z,105
2017-08-08T05:18:15.984Z,110
2017-08-08T05:19:26.177Z,110
2017-08-08T05:20:35.386Z,110
2017-08-08T05:21:44.596Z,110
2017-08-08T05:22:53.809Z,115
2017-08-08T05:24:03.013Z,110
2017-08-08T05:25:12.553Z,110
2017-08-08T05:26:21.437Z,110
2017-08-08T05:27:30.641Z,110
2017-08-08T05:28:39.676Z,110
2017-08-08T05:29:49.208Z,115
2017-08-08T05:30:59.390Z,120
2017-08-08T05:32:08.597Z,120
2017-08-08T05:33:17.803Z,125
2017-08-08T05:34:27.261Z,130
2017-08-08T05:35:36.471Z,135
2017-08-08T05:36:45.364Z,135
2017-08-08T05:37:54.893Z,135
2017-08-08T05:39:04.096Z,135
2017-08-08T05:40:13.405Z,130
2017-08-08T05:41:23.259Z,130
2017-08-08T05:42:32.470Z,130
2017-08-08T05:43:42.009Z,130
2017-08-08T05:44:51.860Z,130
2017-08-08T05:46:01.495Z,130
2017-08-08T05:47:10.702Z,130
2017-08-08T05:48:20.556Z,130
2017-08-08T05:49:30.083Z,125
2017-08-08T05:50:39.612Z,120
2017-08-08T05:51:49.612Z,120
2017-08-08T05:52:59.464Z,125
2017-08-08T05:54:09.318Z,130
2017-08-08T05:55:18.850Z,140
2017-08-08T05:56:28.059Z,145
2017-08-08T05:57:37.740Z,145
2017-08-08T05:58:46.954Z,145
2017-08-08T05:59:56.809Z,145
2017-08-08T06:01:06.994Z,145
2017-08-08T06:02:16.856Z,145
2017-08-08T06:03:26.213Z,150
2017-08-08T06:04:35.745Z,155
2017-08-08T06:05:45.276Z,160
2017-08-08T06:06:54.485Z,165
2017-08-08T06:08:04.031Z,165
2017-08-08T06:09:13.665Z,170
2017-08-08T06:10:23.841Z,170
2017-08-08T06:11:33.373Z,170
2017-08-08T06:12:42.899Z,170
2017-08-08T06:13:52.428Z,165
2017-08-08T06:15:02.110Z,160
2017-08-08T06:16:11.641Z,160
2017-08-08T06:17:21.498Z,160
2017-08-08T06:18:30.727Z,155
2017-08-08T06:19:39.931Z,155
2017-08-08T06:20:49.508Z,150
2017-08-08T06:21:58.754Z,150
2017-08-08T06:23:07.636Z,150
2017-08-08T06:24:17.169Z,150
2017-08-08T06:25:26.700Z,155
2017-08-08T06:26:36.334Z,160
2017-08-08T06:27:45.553Z,160
2017-08-08T06:28:55.086Z,160
2017-08-08T06:30:04.318Z,160
2017-08-08T06:31:13.856Z,165
2017-08-08T06:32:22.794Z,160
2017-08-08T06:33:32.324Z,155
2017-08-08T06:34:41.859Z,150
2017-08-08T06:35:51.709Z,145
2017-08-08T06:37:00.915Z,140
2017-08-08T06:38:10.819Z,135
2017-08-08T06:39:20.027Z,135
2017-08-08T06:40:29.560Z,130
2017-08-08T06:41:39.415Z,130
2017-08-08T06:42:48.948Z,130
2017-08-08T06:43:58.206Z,135
2017-08-08T06:45:07.132Z,140
2017-08-08T06:46:16.663Z,150
2017-08-08T06:47:25.599Z,155
2017-08-08T06:48:34.810Z,165
2017-08-08T06:49:43.843Z,170
2017-08-08T06:50:52.733Z,185
2017-08-08T06:52:02.587Z,200
2017-08-08T06:53:11.471Z,210
2017-08-08T06:54:20.677Z,235
2017-08-08T06:55:29.763Z,250
2017-08-08T06:56:39.297Z,265
2017-08-08T06:57:49.149Z,290
2017-08-08T06:58:58.354Z,300
2017-08-08T07:00:07.236Z,310
2017-08-08T07:01:17.240Z,320
2017-08-08T07:02:26.775Z,315
2017-08-08T07:03:35.995Z,315
2017-08-08T07:04:45.532Z,300
2017-08-08T07:05:55.714Z,305
2017-08-08T07:07:05.071Z,315
2017-08-08T07:08:14.920Z,310
2017-08-08T07:09:23.808Z,320
2017-08-08T07:10:33.384Z,330
2017-08-08T07:11:42.597Z,320
2017-08-08T07:12:51.637Z,315
2017-08-08T07:14:01.174Z,305
2017-08-08T07:15:10.395Z,305
2017-08-08T07:16:19.928Z,310
2017-08-08T07:17:29.139Z,325
2017-08-08T07:18:38.602Z,335
2017-08-08T07:19:48.141Z,345
2017-08-08T07:20:58.000Z,355
2017-08-08T07:22:07.533Z,360
2017-08-08T07:23:17.073Z,365
2017-08-08T07:24:26.802Z,360
2017-08-08T07:25:36.977Z,350
2017-08-08T07:26:46.185Z,340
2017-08-08T07:27:56.043Z,330
2017-08-08T07:29:05.252Z,330
2017-08-08T07:30:15.309Z,330
2017-08-08T07:31:24.520Z,335
2017-08-08T07:32:34.053Z,330
2017-08-08T07:33:43.263Z,330
2017-08-08T07:34:52.149Z,330
2017-08-08T07:36:01.884Z,335
2017-08-08T07:37:11.414Z,340
2017-08-08T07:38:21.271Z,345
2017-08-08T07:39:30.169Z,350
2017-08-08T07:40:40.050Z,345
2017-08-08T07:41:49.668Z,335
2017-08-08T07:42:59.526Z,330
2017-08-08T07:44:08.740Z,325
2017-08-08T07:45:17.955Z,325
2017-08-08T07:46:27.159Z,330
2017-08-08T07:47:36.199Z,340
2017-08-08T07:48:45.733Z,350
2017-08-08T07:49:54.617Z,360
2017-08-08T07:51:04.149Z,360
2017-08-08T07:52:13.046Z,365
2017-08-08T07:53:22.734Z,365
2017-08-08T07:54:32.263Z,365
2017-08-08T07:55:41.473Z,365
2017-08-08T07:56:50.685Z,370
2017-08-08T07:58:00.218Z,375
2017-08-08T07:59:09.751Z,380
2017-08-08T08:00:18.634Z,385
2017-08-08T08:01:27.842Z,395
2017-08-08T08:02:37.702Z,400
2017-08-08T08:03:47.243Z,410
2017-08-08T08:04:56.608Z,415
2017-08-08T08:06:05.819Z,415
2017-08-08T08:07:15.029Z,410
2017-08-08T08:08:24.897Z,405
2017-08-08T08:09:33.784Z,405
2017-08-08T08:10:43.099Z,405
2017-08-08T08:11:52.309Z,405
2017-08-08T08:13:02.170Z,415
2017-08-08T08:14:11.381Z,420
2017-08-08T08:15:20.591Z,430
2017-08-08T08:16:29.575Z,435
2017-08-08T08:17:39.757Z,445
2017-08-08T08:18:48.970Z,440
2017-08-08T08:19:58.549Z,440
2017-08-08T08:21:08.402Z,445
2017-08-08T08:22:18.086Z,455
2017-08-08T08:23:27.616Z,465
2017-08-08T08:24:36.510Z,465
2017-08-08T08:25:46.045Z,470
2017-08-08T08:26:55.257Z,480
2017-08-08T08:28:04.992Z,480
2017-08-08T08:29:13.899Z,475
2017-08-08T08:30:23.441Z,475
2017-08-08T08:31:32.975Z,475
2017-08-08T08:32:41.860Z,480
2017-08-08T08:33:51.549Z,480
2017-08-08T08:35:00.759Z,485
2017-08-08T08:36:10.616Z,485
2017-08-08T08:37:19.513Z,480
2017-08-08T08:38:28.402Z,475
2017-08-08T08:39:38.038Z,475
2017-08-08T08:40:47.907Z,475
2017-08-08T08:41:57.122Z,475
2017-08-08T08:43:06.336Z,475
2017-08-08T08:44:16.192Z,480
2017-08-08T08:45:25.876Z,485
2017-08-08T08:46:35.418Z,485
2017-08-08T08:47:45.598Z,485
2017-08-08T08:48:55.133Z,485
2017-08-08T08:50:04.669Z,480
2017-08-08T08:51:13.657Z,480
2017-08-08T08:52:22.550Z,490
2017-08-08T08:53:31.761Z,495
2017-08-08T08:54:40.651Z,510
2017-08-08T08:55:49.860Z,525
2017-08-08T08:56:59.268Z,530
2017-08-08T08:58:09.408Z,540
2017-08-08T08:59:18.293Z,530
2017-08-08T09:00:28.161Z,535
2017-08-08T09:01:37.053Z,550
2017-08-08T09:02:46.637Z,540
2017-08-08T09:03:55.862Z,535
2017-08-08T09:05:05.074Z,530
2017-08-08T09:06:13.962Z,530
2017-08-08T09:07:23.494Z,535
2017-08-08T09:08:32.705Z,540
2017-08-08T09:09:42.250Z,545
2017-08-08T09:10:51.460Z,530
2017-08-08T09:12:00.673Z,535
2017-08-08T09:13:09.890Z,530
2017-08-08T09:14:19.930Z,530
2017-08-08T09:15:29.464Z,530
2017-08-08T09:16:38.673Z,525
2017-08-08T09:17:48.204Z,530
2017-08-08T09:18:57.744Z,550
2017-08-08T09:20:06.879Z,565
2017-08-08T09:21:16.737Z,570
2017-08-08T09:22:25.950Z,575
2017-08-08T09:23:35.162Z,580
2017-08-08T09:24:44.371Z,570
2017-08-08T09:25:53.509Z,545
2017-08-08T09:27:03.051Z,540
2017-08-08T09:28:12.264Z,545
2017-08-08T09:29:22.128Z,550
2017-08-08T09:30:31.336Z,550
2017-08-08T09:31:40.701Z,555
2017-08-08T09:32:50.239Z,560
2017-08-08T09:33:59.456Z,570
2017-08-08T09:35:08.994Z,575
2017-08-08T09:36:18.529Z,580
2017-08-08T09:37:27.794Z,580
2017-08-08T09:38:37.007Z,585
2017-08-08T09:39:46.222Z,585
2017-08-08T09:40:55.430Z,585
2017-08-08T09:42:04.969Z,585
2017-08-08T09:43:14.276Z,590
2017-08-08T09:44:23.819Z,595
2017-08-08T09:45:32.707Z,590
2017-08-08T09:46:42.566Z,590
2017-08-08T09:47:51.462Z,590
2017-08-08T09:49:00.973Z,590
2017-08-08T09:50:10.508Z,585
2017-08-08T09:51:19.402Z,585
2017-08-08T09:52:28.616Z,590
2017-08-08T09:53:38.158Z,580
2017-08-08T09:54:47.380Z,575
2017-08-08T09:55:56.266Z,570
2017-08-08T09:57:05.808Z,565
2017-08-08T09:58:15.020Z,560
2017-08-08T09:59:24.641Z,560
2017-08-08T10:00:34.232Z,560
2017-08-08T10:01:43.776Z,555
2017-08-08T10:02:52.989Z,555
2017-08-08T10:04:02.201Z,555
2017-08-08T10:05:11.409Z,555
2017-08-08T10:06:21.153Z,550
2017-08-08T10:07:30.040Z,545
2017-08-08T10:08:39.263Z,540
2017-08-08T10:09:48.151Z,525
2017-08-08T10:10:57.037Z,510
2017-08-08T10:12:06.305Z,495
2017-08-08T10:13:15.849Z,485
2017-08-08T10:14:25.709Z,480
2017-08-08T10:15:34.925Z,485
2017-08-08T10:16:45.108Z,490
2017-08-08T10:17:54.422Z,495
2017-08-08T10:19:04.289Z,505
2017-08-08T10:20:13.497Z,515
2017-08-08T10:21:22.709Z,525
2017-08-08T10:22:31.926Z,530
2017-08-08T10:23:41.985Z,540
2017-08-08T10:24:51.519Z,535
2017-08-08T10:26:00.732Z,530
2017-08-08T10:27:10.609Z,520
2017-08-08T10:28:19.820Z,510
2017-08-08T10:29:29.132Z,520
2017-08-08T10:30:38.026Z,520
2017-08-08T10:31:48.204Z,530
2017-08-08T10:32:57.746Z,530
2017-08-08T10:34:07.285Z,530
2017-08-08T10:35:16.602Z,530
2017-08-08T10:36:25.822Z,535
2017-08-08T10:37:35.045Z,540
2017-08-08T10:38:44.259Z,545
2017-08-08T10:39:53.468Z,545
2017-08-08T10:41:02.931Z,550
2017-08-08T10:42:12.465Z,550
2017-08-08T10:43:21.678Z,555
2017-08-08T10:44:31.232Z,565
2017-08-08T10:45:40.447Z,570
2017-08-08T10:46:49.434Z,565
2017-08-08T10:47:58.650Z,570
2017-08-08T10:49:08.510Z,565
2017-08-08T10:50:18.363Z,560
2017-08-08T10:51:27.900Z,550
2017-08-08T10:52:37.168Z,540
2017-08-08T10:53:47.051Z,525
2017-08-08T10:54:56.293Z,515
2017-08-08T10:56:06.147Z,505
2017-08-08T10:57:15.696Z,500
2017-08-08T10:58:25.806Z,495
2017-08-08T10:59:35.027Z,495
2017-08-08T11:00:44.561Z,495
2017-08-08T11:01:53.450Z,500
2017-08-08T11:03:02.994Z,505
2017-08-08T11:04:12.082Z,500
2017-08-08T11:05:21.950Z,485
2017-08-08T11:06:32.456Z,475
2017-08-08T11:07:42.315Z,475
2017-08-08T11:08:51.542Z,480
2017-08-08T11:10:01.084Z,480
2017-08-08T11:11:10.294Z,470
2017-08-08T11:12:19.836Z,455
2017-08-08T11:13:29.378Z,435
2017-08-08T11:14:38.265Z,420
2017-08-08T11:15:48.275Z,415
2017-08-08T11:16:57.816Z,410
2017-08-08T11:18:06.700Z,405
2017-08-08T11:19:15.595Z,405
2017-08-08T11:20:25.147Z,405
2017-08-08T11:21:34.561Z,410
2017-08-08T11:22:43.780Z,420
2017-08-08T11:23:52.991Z,435
2017-08-08T11:25:01.884Z,445
2017-08-08T11:26:11.745Z,455
2017-08-08T11:27:21.644Z,465
2017-08-08T11:28:30.852Z,470
2017-08-08T11:29:39.757Z,480
2017-08-08T11:30:48.649Z,490
2017-08-08T11:31:58.509Z,500
2017-08-08T11:33:07.873Z,500
2017-08-08T11:34:17.093Z,495
2017-08-08T11:35:26.303Z,490
2017-08-08T11:36:36.215Z,490
2017-08-08T11:37:45.436Z,490
2017-08-08T11:38:55.124Z,480
2017-08-08T11:40:04.337Z,470
2017-08-08T11:41:13.253Z,460
2017-08-08T11:42:22.466Z,460
2017-08-08T11:43:31.750Z,465
2017-08-08T11:44:41.019Z,480
2017-08-08T11:45:50.554Z,495
2017-08-08T11:46:59.441Z,505
2017-08-08T11:48:08.333Z,500
2017-08-08T11:49:17.547Z,510
2017-08-08T11:50:27.085Z,505
2017-08-08T11:51:36.296Z,500
2017-08-08T11:52:46.151Z,495
2017-08-08T11:53:55.701Z,480
2017-08-08T11:55:05.904Z,460
2017-08-08T11:56:16.065Z,450
2017-08-08T11:57:25.351Z,435
2017-08-08T11:58:35.217Z,430
2017-08-08T11:59:44.753Z,430
2017-08-08T12:00:54.612Z,430
2017-08-08T12:02:04.504Z,430
2017-08-08T12:03:14.039Z,430
2017-08-08T12:04:23.294Z,430
2017-08-08T12:05:32.503Z,430
2017-08-08T12:06:42.058Z,430
2017-08-08T12:07:51.307Z,440
2017-08-08T12:09:01.172Z,445
2017-08-08T12:10:10.709Z,450
2017-08-08T12:11:20.256Z,450
2017-08-08T12:12:29.464Z,450
2017-08-08T12:13:38.979Z,445
2017-08-08T12:14:49.181Z,445
2017-08-08T12:15:58.393Z,440
2017-08-08T12:17:07.604Z,435
2017-08-08T12:18:17.462Z,430
2017-08-08T12:19:26.927Z,425
2017-08-08T12:20:35.823Z,425
2017-08-08T12:21:45.065Z,425
2017-08-08T12:22:54.603Z,430
2017-08-08T12:24:03.828Z,435
2017-08-08T12:25:12.868Z,440
2017-08-08T12:26:22.078Z,440
2017-08-08T12:27:31.294Z,435
2017-08-08T12:28:41.149Z,435
2017-08-08T12:29:50.381Z,430
2017-08-08T12:31:00.116Z,425
2017-08-08T12:32:09.332Z,420
2017-08-08T12:33:18.873Z,415
2017-08-08T12:34:28.199Z,415
2017-08-08T12:35:38.548Z,420
2017-08-08T12:36:47.872Z,425
2017-08-08T12:37:57.094Z,420
2017-08-08T12:39:06.632Z,420
2017-08-08T12:40:16.170Z,415
2017-08-08T12:41:25.416Z,405
2017-08-08T12:42:34.826Z,395
2017-08-08T12:43:43.749Z,390
2017-08-08T12:44:52.708Z,390
2017-08-08T12:46:01.598Z,395
2017-08-08T12:47:10.492Z,415
2017-08-08T12:48:20.333Z,420
2017-08-08T12:49:29.576Z,425
2017-08-08T12:50:39.571Z,440
2017-08-08T12:51:48.485Z,445
2017-08-08T12:52:58.677Z,440
2017-08-08T12:54:08.384Z,435
2017-08-08T12:55:17.921Z,425
2017-08-08T12:56:27.134Z,425
2017-08-08T12:57:36.349Z,440
2017-08-08T12:58:45.584Z,455
2017-08-08T12:59:54.640Z,475
2017-08-08T13:01:04.414Z,485
2017-08-08T13:02:13.304Z,490
2017-08-08T13:03:22.862Z,475
2017-08-08T13:04:32.486Z,460
2017-08-08T13:05:41.850Z,435
2017-08-08T13:06:51.968Z,410
2017-08-08T13:08:00.862Z,380
2017-08-08T13:09:11.032Z,360
2017-08-08T13:10:20.270Z,350
2017-08-08T13:11:30.335Z,345
2017-08-08T13:12:39.253Z,350
2017-08-08T13:13:48.792Z,355
2017-08-08T13:14:58.659Z,360
2017-08-08T13:16:07.889Z,360
2017-08-08T13:17:17.457Z,350
2017-08-08T13:18:26.674Z,335
2017-08-08T13:19:36.214Z,330
2017-08-08T13:20:46.075Z,315
2017-08-08T13:21:55.609Z,305
2017-08-08T13:23:04.501Z,300
2017-08-08T13:24:14.684Z,300
2017-08-08T13:25:23.899Z,295
2017-08-08T13:26:33.777Z,275
2017-08-08T13:27:42.988Z,245
2017-08-08T13:28:52.913Z,230
2017-08-08T13:30:02.780Z,230
2017-08-08T13:31:11.994Z,235
2017-08-08T13:32:21.858Z,240
2017-08-08T13:33:31.089Z,225
2017-08-08T13:34:40.363Z,205
2017-08-08T13:35:50.566Z,200
2017-08-08T13:37:00.772Z,195
2017-08-08T13:38:09.988Z,190
2017-08-08T13:39:19.883Z,190
2017-08-08T13:40:29.207Z,190
2017-08-08T13:41:38.424Z,190
2017-08-08T13:42:48.287Z,200
2017-08-08T13:43:57.504Z,210
2017-08-08T13:45:07.126Z,215
2017-08-08T13:46:16.993Z,210
2017-08-08T13:47:26.527Z,200
2017-08-08T13:48:36.387Z,195
2017-08-08T13:49:46.265Z,195
2017-08-08T13:50:55.809Z,190
2017-08-08T13:52:05.398Z,185
2017-08-08T13:53:14.617Z,185
2017-08-08T13:54:24.151Z,185
2017-08-08T13:55:34.015Z,190
2017-08-08T13:56:43.251Z,190
2017-08-08T13:57:52.974Z,195
2017-08-08T13:59:02.841Z,200
2017-08-08T14:00:13.028Z,205
2017-08-08T14:01:22.904Z,205
2017-08-08T14:02:32.774Z,215
2017-08-08T14:03:42.135Z,220
2017-08-08T14:04:51.679Z,235
2017-08-08T14:06:01.542Z,255
2017-08-08T14:07:11.414Z,255
2017-08-08T14:08:20.631Z,255
2017-08-08T14:09:30.817Z,255
2017-08-08T14:10:40.679Z,245
2017-08-08T14:11:50.226Z,250
2017-08-08T14:12:59.799Z,285
2017-08-08T14:14:09.661Z,340
2017-08-08T14:15:19.581Z,375
2017-08-08T14:16:29.453Z,380
2017-08-08T14:17:39.009Z,355
2017-08-08T14:18:48.891Z,320
2017-08-08T14:19:58.773Z,300
2017-08-08T14:21:08.634Z,305
2017-08-08T14:22:17.520Z,320
2017-08-08T14:23:27.057Z,340
2017-08-08T14:24:36.596Z,325
2017-08-08T14:25:45.807Z,290
2017-08-08T14:26:55.270Z,285
2017-08-08T14:28:04.804Z,295
2017-08-08T14:29:14.340Z,285
2017-08-08T14:30:23.550Z,255
2017-08-08T14:31:33.413Z,220
2017-08-08T14:32:42.453Z,195
2017-08-08T14:33:51.989Z,180
2017-08-08T14:35:01.523Z,165
2017-08-08T14:36:10.738Z,170
2017-08-08T14:37:19.952Z,185
2017-08-08T14:38:29.849Z,200
2017-08-08T14:39:39.386Z,215
2017-08-08T14:40:48.918Z,220
2017-08-08T14:41:58.781Z,215
2017-08-08T14:43:08.319Z,200
2017-08-08T14:44:18.180Z,195
2017-08-08T14:45:27.411Z,190
2017-08-08T14:46:36.299Z,175
2017-08-08T14:47:45.546Z,155
2017-08-08T14:48:54.435Z,140
2017-08-08T14:50:03.647Z,120
2017-08-08T14:51:12.870Z,110
2017-08-08T14:52:22.751Z,110
2017-08-08T14:53:32.289Z,115
2017-08-08T14:54:41.506Z,115
2017-08-08T14:55:51.398Z,105
2017-08-08T14:57:00.621Z,90
2017-08-08T14:58:10.157Z,75
2017-08-08T14:59:19.714Z,75
2017-08-08T15:00:29.572Z,70
2017-08-08T15:01:38.460Z,70
2017-08-08T15:02:48.321Z,70
2017-08-08T15:03:58.171Z,80
2017-08-08T15:05:07.191Z,90
2017-08-08T15:06:16.748Z,115
2017-08-08T15:07:26.280Z,130
2017-08-08T15:08:35.822Z,125
2017-08-08T15:09:45.355Z,115
2017-08-08T15:10:54.247Z,100
2017-08-08T15:12:03.782Z,95
2017-08-08T15:13:13.006Z,95
2017-08-08T15:14:22.220Z,100
2017-08-08T15:15:32.128Z,100
2017-08-08T15:16:41.341Z,95
2017-08-08T15:17:50.553Z,85
2017-08-08T15:19:00.084Z,75
2017-08-08T15:20:09.881Z,70
2017-08-08T15:21:19.292Z,60
2017-08-08T15:22:28.181Z,55
2017-08-08T15:23:37.479Z,50
2017-08-08T15:24:46.688Z,45
2017-08-08T15:25:56.869Z,40
2017-08-08T15:27:06.777Z,40
2017-08-08T15:28:15.989Z,40
2017-08-08T15:29:25.848Z,40
2017-08-08T15:30:35.729Z,45
2017-08-08T15:31:44.945Z,45
2017-08-08T15:32:54.251Z,45
2017-08-08T15:34:04.113Z,40
2017-08-08T15:35:13.647Z,35
2017-08-08T15:36:22.535Z,35
2017-08-08T15:37:32.389Z,30
2017-08-08T15:38:42.683Z,25
2017-08-08T15:39:51.577Z,25
2017-08-08T15:41:00.474Z,25
2017-08-08T15:42:09.692Z,25
2017-08-08T15:43:19.561Z,35
2017-08-08T15:44:29.846Z,40
2017-08-08T15:45:39.714Z,45
2017-08-08T15:46:48.924Z,50
2017-08-08T15:47:58.455Z,50
2017-08-08T15:49:07.992Z,50
2017-08-08T15:50:16.938Z,45
2017-08-08T15:51:26.480Z,50
2017-08-08T15:52:36.996Z,50
2017-08-08T15:53:46.854Z,50
2017-08-08T15:54:56.513Z,45
2017-08-08T15:56:06.097Z,45
2017-08-08T15:57:15.128Z,45
2017-08-08T15:58:24.704Z,55
2017-08-08T15:59:33.815Z,65
2017-08-08T16:00:43.284Z,65
2017-08-08T16:02:22.681Z,60
2017-08-08T16:03:32.101Z,50
2017-08-08T16:04:42.051Z,45
2017-08-08T16:05:51.385Z,45
2017-08-08T16:07:00.708Z,45
2017-08-08T16:08:10.057Z,40
2017-08-08T16:09:19.812Z,35
2017-08-08T16:10:29.192Z,35
2017-08-08T16:11:38.239Z,35
2017-08-08T16:12:47.583Z,30
2017-08-08T16:13:57.488Z,25
2017-08-08T16:15:06.813Z,20
2017-08-08T16:16:16.701Z,20
2017-08-08T16:17:25.766Z,20
2017-08-08T16:18:34.968Z,25